sensor_id;sensor_type;location;lat;lon;timestamp;pressure;altitude;pressure_sealevel;temperature;humidity
2397;BME280;1209;48.410;9.054;2023-01-30T00:01:43;96843.75;;;-1.95;100.00
2397;BME280;1209;48.410;9.054;2023-01-30T00:04:09;96842.34;;;-2.01;100.00
2397;BME280;1209;48.410;9.054;2023-01-30T00:06:37;96833.88;;;-2.17;100.00
2397;BME280;1209;48.410;9.054;2023-01-30T00:09:02;96823.22;;;-2.09;100.00
2397;BME280;1209;48.410;9.054;2023-01-30T00:11:28;96821.72;;;-1.98;100.00
2397;BME280;1209;48.410;9.054;2023-01-30T00:13:54;96816.13;;;-2.20;100.00
2397;BME280;1209;48.410;9.054;2023-01-30T00:16:19;96818.69;;;-2.20;100.00
2397;BME280;1209;48.410;9.054;2023-01-30T00:18:45;96814.72;;;-2.10;100.00
2397;BME280;1209;48.410;9.054;2023-01-30T00:21:12;96810.16;;;-2.05;100.00
2397;BME280;1209;48.410;9.054;2023-01-30T00:23:38;96811.59;;;-2.15;100.00
2397;BME280;1209;48.410;9.054;2023-01-30T00:26:04;96805.38;;;-1.95;100.00
2397;BME280;1209;48.410;9.054;2023-01-30T00:28:30;96818.19;;;-2.11;100.00
2397;BME280;1209;48.410;9.054;2023-01-30T00:30:56;96810.53;;;-2.27;100.00
2397;BME280;1209;48.410;9.054;2023-01-30T00:33:24;96805.06;;;-2.20;100.00
2397;BME280;1209;48.410;9.054;2023-01-30T00:35:51;96795.00;;;-2.24;100.00
2397;BME280;1209;48.410;9.054;2023-01-30T00:38:16;96785.59;;;-2.55;100.00
2397;BME280;1209;48.410;9.054;2023-01-30T00:40:42;96775.38;;;-2.23;100.00
2397;BME280;1209;48.410;9.054;2023-01-30T00:43:12;96771.06;;;-2.54;100.00
2397;BME280;1209;48.410;9.054;2023-01-30T00:45:56;96767.69;;;-2.23;100.00
2397;BME280;1209;48.410;9.054;2023-01-30T00:48:41;96782.97;;;-2.22;100.00
2397;BME280;1209;48.410;9.054;2023-01-30T00:51:06;96787.81;;;-2.48;100.00
2397;BME280;1209;48.410;9.054;2023-01-30T00:53:32;96793.25;;;-2.39;100.00
2397;BME280;1209;48.410;9.054;2023-01-30T00:55:57;96794.06;;;-2.38;100.00
2397;BME280;1209;48.410;9.054;2023-01-30T00:58:23;96791.06;;;-2.29;100.00
2397;BME280;1209;48.410;9.054;2023-01-30T01:00:49;96768.59;;;-2.71;100.00
2397;BME280;1209;48.410;9.054;2023-01-30T01:03:15;96760.59;;;-2.49;100.00
2397;BME280;1209;48.410;9.054;2023-01-30T01:05:41;96764.47;;;-2.42;100.00
2397;BME280;1209;48.410;9.054;2023-01-30T01:08:07;96771.16;;;-2.40;100.00
2397;BME280;1209;48.410;9.054;2023-01-30T01:10:32;96773.31;;;-2.32;100.00
2397;BME280;1209;48.410;9.054;2023-01-30T01:12:57;96787.06;;;-2.50;100.00
2397;BME280;1209;48.410;9.054;2023-01-30T01:15:24;96777.84;;;-2.53;100.00
2397;BME280;1209;48.410;9.054;2023-01-30T01:17:50;96781.78;;;-2.47;100.00
2397;BME280;1209;48.410;9.054;2023-01-30T01:20:16;96778.81;;;-2.56;100.00
2397;BME280;1209;48.410;9.054;2023-01-30T01:22:42;96791.19;;;-2.48;100.00
2397;BME280;1209;48.410;9.054;2023-01-30T01:25:09;96799.81;;;-2.33;100.00
2397;BME280;1209;48.410;9.054;2023-01-30T01:27:35;96803.41;;;-2.37;100.00
2397;BME280;1209;48.410;9.054;2023-01-30T01:30:01;96814.06;;;-2.29;100.00
2397;BME280;1209;48.410;9.054;2023-01-30T01:32:26;96818.34;;;-2.30;100.00
2397;BME280;1209;48.410;9.054;2023-01-30T01:34:51;96817.78;;;-2.35;100.00
2397;BME280;1209;48.410;9.054;2023-01-30T01:37:17;96828.31;;;-2.41;100.00
2397;BME280;1209;48.410;9.054;2023-01-30T01:39:42;96831.94;;;-2.45;100.00
2397;BME280;1209;48.410;9.054;2023-01-30T01:42:29;96845.22;;;-2.54;100.00
2397;BME280;1209;48.410;9.054;2023-01-30T01:47:27;96858.13;;;-2.73;100.00
2397;BME280;1209;48.410;9.054;2023-01-30T01:49:52;96873.88;;;-2.65;100.00
2397;BME280;1209;48.410;9.054;2023-01-30T01:52:19;96879.94;;;-2.83;100.00
2397;BME280;1209;48.410;9.054;2023-01-30T01:57:22;96895.22;;;-2.66;100.00
2397;BME280;1209;48.410;9.054;2023-01-30T02:00:00;96885.25;;;-2.70;100.00
2397;BME280;1209;48.410;9.054;2023-01-30T02:02:26;96894.31;;;-2.65;100.00
2397;BME280;1209;48.410;9.054;2023-01-30T02:04:55;96878.72;;;-2.93;100.00
2397;BME280;1209;48.410;9.054;2023-01-30T02:08:36;96866.38;;;-2.85;100.00
2397;BME280;1209;48.410;9.054;2023-01-30T02:13:17;96850.34;;;-3.04;100.00
2397;BME280;1209;48.410;9.054;2023-01-30T02:15:44;96850.03;;;-2.98;100.00
2397;BME280;1209;48.410;9.054;2023-01-30T02:18:09;96845.13;;;-2.86;100.00
2397;BME280;1209;48.410;9.054;2023-01-30T02:23:29;96844.94;;;-2.65;100.00
2397;BME280;1209;48.410;9.054;2023-01-30T02:28:47;96856.25;;;-2.54;100.00
2397;BME280;1209;48.410;9.054;2023-01-30T02:31:33;96853.28;;;-2.46;100.00
2397;BME280;1209;48.410;9.054;2023-01-30T02:34:20;96858.78;;;-2.36;100.00
2397;BME280;1209;48.410;9.054;2023-01-30T02:39:45;96844.34;;;-2.22;100.00
2397;BME280;1209;48.410;9.054;2023-01-30T02:42:37;96830.97;;;-2.11;100.00
2397;BME280;1209;48.410;9.054;2023-01-30T02:45:12;96841.53;;;-2.17;100.00
2397;BME280;1209;48.410;9.054;2023-01-30T02:47:49;96848.63;;;-2.22;100.00
2397;BME280;1209;48.410;9.054;2023-01-30T02:50:40;96873.88;;;-2.16;100.00
2397;BME280;1209;48.410;9.054;2023-01-30T02:53:08;96863.97;;;-2.06;100.00
2397;BME280;1209;48.410;9.054;2023-01-30T02:55:34;96821.16;;;-2.03;100.00
2397;BME280;1209;48.410;9.054;2023-01-30T02:58:01;96820.66;;;-2.09;100.00
2397;BME280;1209;48.410;9.054;2023-01-30T03:06:12;96857.13;;;-2.06;100.00
2397;BME280;1209;48.410;9.054;2023-01-30T03:11:09;96829.31;;;-1.80;100.00
2397;BME280;1209;48.410;9.054;2023-01-30T03:16:18;96822.50;;;-1.66;100.00
2397;BME280;1209;48.410;9.054;2023-01-30T03:18:46;96819.84;;;-1.64;100.00
2397;BME280;1209;48.410;9.054;2023-01-30T03:21:11;96826.03;;;-1.52;100.00
2397;BME280;1209;48.410;9.054;2023-01-30T03:23:37;96850.44;;;-1.47;100.00
2397;BME280;1209;48.410;9.054;2023-01-30T03:26:04;96843.78;;;-1.49;100.00
2397;BME280;1209;48.410;9.054;2023-01-30T03:28:30;96835.81;;;-1.45;100.00
2397;BME280;1209;48.410;9.054;2023-01-30T03:30:56;96832.44;;;-1.45;100.00
2397;BME280;1209;48.410;9.054;2023-01-30T03:33:21;96819.47;;;-1.42;100.00
2397;BME280;1209;48.410;9.054;2023-01-30T03:35:48;96803.28;;;-1.43;100.00
2397;BME280;1209;48.410;9.054;2023-01-30T03:38:13;96797.84;;;-1.52;100.00
2397;BME280;1209;48.410;9.054;2023-01-30T03:40:39;96821.00;;;-1.54;100.00
2397;BME280;1209;48.410;9.054;2023-01-30T03:43:04;96832.69;;;-1.50;100.00
2397;BME280;1209;48.410;9.054;2023-01-30T03:45:29;96832.69;;;-1.50;100.00
2397;BME280;1209;48.410;9.054;2023-01-30T03:47:54;96816.59;;;-1.52;100.00
2397;BME280;1209;48.410;9.054;2023-01-30T03:50:20;96805.44;;;-1.51;100.00
2397;BME280;1209;48.410;9.054;2023-01-30T03:52:45;96765.56;;;-1.55;100.00
2397;BME280;1209;48.410;9.054;2023-01-30T03:55:10;96739.88;;;-1.53;100.00
2397;BME280;1209;48.410;9.054;2023-01-30T03:57:36;96706.41;;;-1.65;100.00
2397;BME280;1209;48.410;9.054;2023-01-30T04:00:02;96679.63;;;-1.59;100.00
2397;BME280;1209;48.410;9.054;2023-01-30T04:02:28;96657.50;;;-1.60;100.00
2397;BME280;1209;48.410;9.054;2023-01-30T04:04:53;96662.44;;;-1.57;100.00
2397;BME280;1209;48.410;9.054;2023-01-30T04:07:18;96678.44;;;-1.53;100.00
2397;BME280;1209;48.410;9.054;2023-01-30T04:09:44;96706.50;;;-1.52;100.00
2397;BME280;1209;48.410;9.054;2023-01-30T04:12:09;96738.22;;;-1.54;100.00
2397;BME280;1209;48.410;9.054;2023-01-30T04:14:34;96744.00;;;-1.51;100.00
2397;BME280;1209;48.410;9.054;2023-01-30T04:17:00;96748.84;;;-1.46;100.00
2397;BME280;1209;48.410;9.054;2023-01-30T04:19:26;96759.69;;;-1.41;100.00
2397;BME280;1209;48.410;9.054;2023-01-30T04:21:51;96761.22;;;-1.39;100.00
2397;BME280;1209;48.410;9.054;2023-01-30T04:24:17;96761.22;;;-1.39;100.00
2397;BME280;1209;48.410;9.054;2023-01-30T04:26:42;96757.25;;;-1.44;100.00
2397;BME280;1209;48.410;9.054;2023-01-30T04:29:07;96748.59;;;-1.42;100.00
2397;BME280;1209;48.410;9.054;2023-01-30T04:31:33;96757.44;;;-1.47;100.00
2397;BME280;1209;48.410;9.054;2023-01-30T04:33:58;96758.19;;;-1.45;100.00
2397;BME280;1209;48.410;9.054;2023-01-30T04:36:23;96789.44;;;-1.54;100.00
2397;BME280;1209;48.410;9.054;2023-01-30T04:38:48;96802.50;;;-1.59;100.00
2397;BME280;1209;48.410;9.054;2023-01-30T04:41:14;96807.78;;;-1.62;100.00
2397;BME280;1209;48.410;9.054;2023-01-30T04:43:39;96800.91;;;-1.76;100.00
2397;BME280;1209;48.410;9.054;2023-01-30T04:46:04;96802.84;;;-1.65;100.00
2397;BME280;1209;48.410;9.054;2023-01-30T04:48:30;96799.91;;;-1.73;100.00
2397;BME280;1209;48.410;9.054;2023-01-30T04:50:55;96795.00;;;-1.62;100.00
2397;BME280;1209;48.410;9.054;2023-01-30T04:53:21;96801.19;;;-1.66;100.00
2397;BME280;1209;48.410;9.054;2023-01-30T04:55:47;96808.72;;;-1.63;100.00
2397;BME280;1209;48.410;9.054;2023-01-30T04:58:13;96796.91;;;-1.66;100.00
2397;BME280;1209;48.410;9.054;2023-01-30T05:00:38;96785.84;;;-1.66;100.00
2397;BME280;1209;48.410;9.054;2023-01-30T05:03:04;96790.06;;;-1.65;100.00
2397;BME280;1209;48.410;9.054;2023-01-30T05:05:31;96784.19;;;-1.67;100.00
2397;BME280;1209;48.410;9.054;2023-01-30T05:07:56;96774.59;;;-1.64;100.00
2397;BME280;1209;48.410;9.054;2023-01-30T05:10:21;96776.91;;;-1.59;100.00
2397;BME280;1209;48.410;9.054;2023-01-30T05:12:46;96776.53;;;-1.53;100.00
2397;BME280;1209;48.410;9.054;2023-01-30T05:15:12;96771.44;;;-1.53;100.00
2397;BME280;1209;48.410;9.054;2023-01-30T05:17:39;96773.25;;;-1.55;100.00
2397;BME280;1209;48.410;9.054;2023-01-30T05:20:06;96783.59;;;-1.56;100.00
2397;BME280;1209;48.410;9.054;2023-01-30T05:22:32;96789.91;;;-1.48;100.00
2397;BME280;1209;48.410;9.054;2023-01-30T05:24:57;96794.81;;;-1.59;100.00
2397;BME280;1209;48.410;9.054;2023-01-30T05:27:24;96802.81;;;-1.49;100.00
2397;BME280;1209;48.410;9.054;2023-01-30T05:29:49;96794.56;;;-1.54;100.00
2397;BME280;1209;48.410;9.054;2023-01-30T05:32:16;96793.28;;;-1.47;100.00
2397;BME280;1209;48.410;9.054;2023-01-30T05:34:42;96792.81;;;-1.54;100.00
2397;BME280;1209;48.410;9.054;2023-01-30T05:37:07;96770.22;;;-1.62;100.00
2397;BME280;1209;48.410;9.054;2023-01-30T05:39:33;96770.13;;;-1.60;100.00
2397;BME280;1209;48.410;9.054;2023-01-30T05:41:58;96759.72;;;-1.57;100.00
2397;BME280;1209;48.410;9.054;2023-01-30T05:44:24;96759.72;;;-1.57;100.00
2397;BME280;1209;48.410;9.054;2023-01-30T05:46:49;96752.03;;;-1.57;100.00
2397;BME280;1209;48.410;9.054;2023-01-30T05:49:15;96738.78;;;-1.49;100.00
2397;BME280;1209;48.410;9.054;2023-01-30T05:51:41;96742.00;;;-1.46;100.00
2397;BME280;1209;48.410;9.054;2023-01-30T05:54:06;96736.34;;;-1.37;100.00
2397;BME280;1209;48.410;9.054;2023-01-30T05:56:32;96740.13;;;-1.28;100.00
2397;BME280;1209;48.410;9.054;2023-01-30T05:58:58;96746.44;;;-1.19;100.00
2397;BME280;1209;48.410;9.054;2023-01-30T06:01:25;96737.66;;;-1.15;100.00
2397;BME280;1209;48.410;9.054;2023-01-30T06:03:50;96734.53;;;-1.06;100.00
2397;BME280;1209;48.410;9.054;2023-01-30T06:06:16;96730.78;;;-1.01;100.00
2397;BME280;1209;48.410;9.054;2023-01-30T06:08:41;96723.09;;;-0.86;100.00
2397;BME280;1209;48.410;9.054;2023-01-30T06:11:14;96725.81;;;-0.75;100.00
2397;BME280;1209;48.410;9.054;2023-01-30T06:13:40;96714.91;;;-0.65;100.00
2397;BME280;1209;48.410;9.054;2023-01-30T06:16:07;96713.78;;;-0.60;100.00
2397;BME280;1209;48.410;9.054;2023-01-30T06:18:33;96707.75;;;-0.45;100.00
2397;BME280;1209;48.410;9.054;2023-01-30T06:20:59;96702.84;;;-0.36;100.00
2397;BME280;1209;48.410;9.054;2023-01-30T06:23:24;96717.66;;;-0.26;100.00
2397;BME280;1209;48.410;9.054;2023-01-30T06:25:51;96723.28;;;-0.34;100.00
2397;BME280;1209;48.410;9.054;2023-01-30T06:28:18;96722.25;;;-0.32;100.00
2397;BME280;1209;48.410;9.054;2023-01-30T06:30:43;96732.66;;;-0.47;100.00
2397;BME280;1209;48.410;9.054;2023-01-30T06:33:09;96717.53;;;-0.52;100.00
2397;BME280;1209;48.410;9.054;2023-01-30T06:35:38;96711.66;;;-0.40;100.00
2397;BME280;1209;48.410;9.054;2023-01-30T06:38:04;96706.63;;;-0.41;100.00
2397;BME280;1209;48.410;9.054;2023-01-30T06:40:29;96694.53;;;-0.39;100.00
2397;BME280;1209;48.410;9.054;2023-01-30T06:42:55;96686.28;;;-0.44;100.00
2397;BME280;1209;48.410;9.054;2023-01-30T06:45:20;96681.91;;;-0.42;100.00
2397;BME280;1209;48.410;9.054;2023-01-30T06:47:50;96682.50;;;-0.12;100.00
2397;BME280;1209;48.410;9.054;2023-01-30T06:50:17;96690.25;;;0.01;100.00
2397;BME280;1209;48.410;9.054;2023-01-30T06:52:44;96707.81;;;0.07;100.00
2397;BME280;1209;48.410;9.054;2023-01-30T06:55:11;96705.78;;;0.12;100.00
2397;BME280;1209;48.410;9.054;2023-01-30T06:57:37;96710.41;;;0.20;100.00
2397;BME280;1209;48.410;9.054;2023-01-30T07:00:04;96711.22;;;0.20;100.00
2397;BME280;1209;48.410;9.054;2023-01-30T07:02:30;96711.66;;;0.27;100.00
2397;BME280;1209;48.410;9.054;2023-01-30T07:05:04;96700.03;;;0.34;100.00
2397;BME280;1209;48.410;9.054;2023-01-30T07:07:30;96689.88;;;0.45;100.00
2397;BME280;1209;48.410;9.054;2023-01-30T07:09:57;96692.47;;;0.58;100.00
2397;BME280;1209;48.410;9.054;2023-01-30T07:12:24;96689.38;;;0.66;100.00
2397;BME280;1209;48.410;9.054;2023-01-30T07:14:51;96678.78;;;0.70;100.00
2397;BME280;1209;48.410;9.054;2023-01-30T07:17:17;96663.69;;;0.78;100.00
2397;BME280;1209;48.410;9.054;2023-01-30T07:19:42;96657.59;;;0.79;100.00
2397;BME280;1209;48.410;9.054;2023-01-30T07:22:08;96660.69;;;0.84;100.00
2397;BME280;1209;48.410;9.054;2023-01-30T07:24:33;96678.25;;;0.90;100.00
2397;BME280;1209;48.410;9.054;2023-01-30T07:26:58;96661.41;;;0.99;100.00
2397;BME280;1209;48.410;9.054;2023-01-30T07:29:24;96666.13;;;1.05;100.00
2397;BME280;1209;48.410;9.054;2023-01-30T07:31:50;96685.13;;;1.15;100.00
2397;BME280;1209;48.410;9.054;2023-01-30T07:34:16;96694.28;;;1.19;100.00
2397;BME280;1209;48.410;9.054;2023-01-30T07:36:42;96698.38;;;1.22;100.00
2397;BME280;1209;48.410;9.054;2023-01-30T07:39:07;96697.63;;;1.33;100.00
2397;BME280;1209;48.410;9.054;2023-01-30T07:41:34;96699.16;;;1.35;100.00
2397;BME280;1209;48.410;9.054;2023-01-30T07:44:02;96706.28;;;1.32;100.00
2397;BME280;1209;48.410;9.054;2023-01-30T07:46:27;96721.16;;;1.39;100.00
2397;BME280;1209;48.410;9.054;2023-01-30T07:49:02;96725.59;;;1.37;100.00
2397;BME280;1209;48.410;9.054;2023-01-30T07:51:28;96734.97;;;1.38;100.00
2397;BME280;1209;48.410;9.054;2023-01-30T07:53:53;96735.06;;;1.37;100.00
2397;BME280;1209;48.410;9.054;2023-01-30T07:56:19;96727.66;;;1.32;100.00
2397;BME280;1209;48.410;9.054;2023-01-30T07:58:46;96731.69;;;1.36;100.00
2397;BME280;1209;48.410;9.054;2023-01-30T08:01:11;96730.97;;;1.34;100.00
2397;BME280;1209;48.410;9.054;2023-01-30T08:03:37;96743.28;;;1.42;100.00
2397;BME280;1209;48.410;9.054;2023-01-30T08:06:02;96740.53;;;1.45;100.00
2397;BME280;1209;48.410;9.054;2023-01-30T08:08:27;96757.59;;;1.33;100.00
2397;BME280;1209;48.410;9.054;2023-01-30T08:10:53;96752.88;;;1.40;100.00
2397;BME280;1209;48.410;9.054;2023-01-30T08:13:18;96741.84;;;1.38;100.00
2397;BME280;1209;48.410;9.054;2023-01-30T08:15:43;96730.41;;;1.42;100.00
2397;BME280;1209;48.410;9.054;2023-01-30T08:18:11;96709.66;;;1.45;100.00
2397;BME280;1209;48.410;9.054;2023-01-30T08:20:36;96699.53;;;1.54;100.00
2397;BME280;1209;48.410;9.054;2023-01-30T08:23:01;96697.56;;;1.58;100.00
2397;BME280;1209;48.410;9.054;2023-01-30T08:25:27;96681.56;;;1.66;100.00
2397;BME280;1209;48.410;9.054;2023-01-30T08:27:53;96687.91;;;1.73;100.00
2397;BME280;1209;48.410;9.054;2023-01-30T08:30:19;96709.59;;;1.81;100.00
2397;BME280;1209;48.410;9.054;2023-01-30T08:32:45;96729.75;;;1.87;100.00
2397;BME280;1209;48.410;9.054;2023-01-30T08:35:11;96748.41;;;1.91;100.00
2397;BME280;1209;48.410;9.054;2023-01-30T08:37:38;96739.44;;;1.97;100.00
2397;BME280;1209;48.410;9.054;2023-01-30T08:40:04;96736.91;;;2.08;100.00
2397;BME280;1209;48.410;9.054;2023-01-30T08:42:29;96722.97;;;2.10;100.00
2397;BME280;1209;48.410;9.054;2023-01-30T08:44:54;96732.94;;;2.15;100.00
2397;BME280;1209;48.410;9.054;2023-01-30T08:47:20;96732.72;;;2.18;100.00
2397;BME280;1209;48.410;9.054;2023-01-30T08:49:45;96729.81;;;2.22;100.00
2397;BME280;1209;48.410;9.054;2023-01-30T08:52:10;96716.00;;;2.24;100.00
2397;BME280;1209;48.410;9.054;2023-01-30T08:54:36;96732.50;;;2.21;100.00
2397;BME280;1209;48.410;9.054;2023-01-30T08:57:01;96739.75;;;2.16;100.00
2397;BME280;1209;48.410;9.054;2023-01-30T08:59:27;96739.19;;;2.24;100.00
2397;BME280;1209;48.410;9.054;2023-01-30T09:01:52;96744.13;;;2.27;100.00
2397;BME280;1209;48.410;9.054;2023-01-30T09:04:18;96739.56;;;2.30;100.00
2397;BME280;1209;48.410;9.054;2023-01-30T09:06:43;96730.88;;;2.31;100.00
2397;BME280;1209;48.410;9.054;2023-01-30T09:09:08;96729.03;;;2.33;100.00
2397;BME280;1209;48.410;9.054;2023-01-30T09:11:34;96731.38;;;2.36;100.00
2397;BME280;1209;48.410;9.054;2023-01-30T09:13:59;96744.44;;;2.46;100.00
2397;BME280;1209;48.410;9.054;2023-01-30T09:16:24;96729.09;;;2.44;100.00
2397;BME280;1209;48.410;9.054;2023-01-30T09:18:49;96731.78;;;2.43;100.00
2397;BME280;1209;48.410;9.054;2023-01-30T09:21:15;96720.44;;;2.57;100.00
2397;BME280;1209;48.410;9.054;2023-01-30T09:23:41;96714.50;;;2.78;100.00
2397;BME280;1209;48.410;9.054;2023-01-30T09:26:06;96702.06;;;2.72;100.00
2397;BME280;1209;48.410;9.054;2023-01-30T09:28:32;96690.16;;;2.94;100.00
2397;BME280;1209;48.410;9.054;2023-01-30T09:30:59;96704.69;;;2.95;100.00
2397;BME280;1209;48.410;9.054;2023-01-30T09:33:24;96690.72;;;3.08;100.00
2397;BME280;1209;48.410;9.054;2023-01-30T09:35:50;96690.84;;;2.96;100.00
2397;BME280;1209;48.410;9.054;2023-01-30T09:38:16;96684.88;;;2.95;100.00
2397;BME280;1209;48.410;9.054;2023-01-30T09:41:00;96704.06;;;2.80;100.00
2397;BME280;1209;48.410;9.054;2023-01-30T09:43:54;96704.28;;;2.77;100.00
2397;BME280;1209;48.410;9.054;2023-01-30T09:47:13;96692.34;;;2.76;100.00
2397;BME280;1209;48.410;9.054;2023-01-30T09:49:50;96696.56;;;2.77;100.00
2397;BME280;1209;48.410;9.054;2023-01-30T09:52:30;96702.75;;;2.74;100.00
2397;BME280;1209;48.410;9.054;2023-01-30T09:55:22;96701.00;;;2.64;100.00
2397;BME280;1209;48.410;9.054;2023-01-30T09:57:49;96693.75;;;2.69;100.00
2397;BME280;1209;48.410;9.054;2023-01-30T10:00:21;96692.22;;;2.66;100.00
2397;BME280;1209;48.410;9.054;2023-01-30T10:02:54;96686.41;;;2.87;100.00
2397;BME280;1209;48.410;9.054;2023-01-30T10:05:54;96697.06;;;3.04;100.00
2397;BME280;1209;48.410;9.054;2023-01-30T10:15:07;96675.31;;;4.16;100.00
2397;BME280;1209;48.410;9.054;2023-01-30T10:20:59;96649.53;;;3.72;100.00
2397;BME280;1209;48.410;9.054;2023-01-30T10:25:52;96617.00;;;3.81;100.00
2397;BME280;1209;48.410;9.054;2023-01-30T10:28:39;96615.44;;;3.90;100.00
2397;BME280;1209;48.410;9.054;2023-01-30T10:31:13;96601.59;;;3.91;100.00
2397;BME280;1209;48.410;9.054;2023-01-30T10:33:49;96622.25;;;3.91;100.00
2397;BME280;1209;48.410;9.054;2023-01-30T10:38:58;96618.97;;;3.89;100.00
2397;BME280;1209;48.410;9.054;2023-01-30T10:41:33;96619.91;;;3.88;100.00
2397;BME280;1209;48.410;9.054;2023-01-30T10:44:10;96615.72;;;3.75;100.00
2397;BME280;1209;48.410;9.054;2023-01-30T10:46:47;96608.75;;;3.87;100.00
2397;BME280;1209;48.410;9.054;2023-01-30T10:49:39;96603.84;;;3.84;100.00
2397;BME280;1209;48.410;9.054;2023-01-30T11:00:00;96610.28;;;4.10;100.00
2397;BME280;1209;48.410;9.054;2023-01-30T11:04:59;96578.66;;;3.97;100.00
2397;BME280;1209;48.410;9.054;2023-01-30T11:07:30;96587.53;;;4.04;100.00
2397;BME280;1209;48.410;9.054;2023-01-30T11:09:56;96581.66;;;4.02;100.00
2397;BME280;1209;48.410;9.054;2023-01-30T11:12:24;96571.16;;;3.94;100.00
2397;BME280;1209;48.410;9.054;2023-01-30T11:14:58;96573.41;;;3.88;100.00
2397;BME280;1209;48.410;9.054;2023-01-30T11:17:43;96576.13;;;4.07;100.00
2397;BME280;1209;48.410;9.054;2023-01-30T11:20:17;96585.81;;;4.15;100.00
2397;BME280;1209;48.410;9.054;2023-01-30T11:25:30;96592.88;;;4.13;100.00
2397;BME280;1209;48.410;9.054;2023-01-30T11:28:01;96585.69;;;4.16;100.00
2397;BME280;1209;48.410;9.054;2023-01-30T11:30:29;96592.25;;;4.20;100.00
2397;BME280;1209;48.410;9.054;2023-01-30T11:33:33;96584.56;;;4.30;100.00
2397;BME280;1209;48.410;9.054;2023-01-30T11:36:03;96567.16;;;4.32;100.00
2397;BME280;1209;48.410;9.054;2023-01-30T11:38:35;96572.72;;;4.27;100.00
2397;BME280;1209;48.410;9.054;2023-01-30T11:41:17;96554.69;;;4.16;100.00
2397;BME280;1209;48.410;9.054;2023-01-30T11:43:44;96567.16;;;4.11;100.00
2397;BME280;1209;48.410;9.054;2023-01-30T11:46:12;96558.47;;;4.12;100.00
2397;BME280;1209;48.410;9.054;2023-01-30T11:48:48;96564.88;;;4.18;100.00
2397;BME280;1209;48.410;9.054;2023-01-30T11:51:15;96564.16;;;4.27;100.00
2397;BME280;1209;48.410;9.054;2023-01-30T11:53:52;96559.44;;;4.41;100.00
2397;BME280;1209;48.410;9.054;2023-01-30T11:56:26;96570.88;;;4.39;100.00
2397;BME280;1209;48.410;9.054;2023-01-30T11:59:02;96557.69;;;4.42;100.00
2397;BME280;1209;48.410;9.054;2023-01-30T12:01:30;96566.22;;;4.33;100.00
2397;BME280;1209;48.410;9.054;2023-01-30T12:03:56;96556.28;;;4.28;100.00
2397;BME280;1209;48.410;9.054;2023-01-30T12:06:42;96563.81;;;4.41;100.00
2397;BME280;1209;48.410;9.054;2023-01-30T12:09:33;96558.25;;;4.46;100.00
2397;BME280;1209;48.410;9.054;2023-01-30T12:11:58;96548.75;;;4.56;100.00
2397;BME280;1209;48.410;9.054;2023-01-30T12:17:19;96532.72;;;4.62;100.00
2397;BME280;1209;48.410;9.054;2023-01-30T12:22:41;96547.78;;;4.47;100.00
2397;BME280;1209;48.410;9.054;2023-01-30T12:25:37;96542.47;;;4.49;100.00
2397;BME280;1209;48.410;9.054;2023-01-30T12:30:52;96543.91;;;4.32;100.00
2397;BME280;1209;48.410;9.054;2023-01-30T12:33:21;96549.00;;;4.22;100.00
2397;BME280;1209;48.410;9.054;2023-01-30T12:39:02;96545.69;;;4.10;100.00
2397;BME280;1209;48.410;9.054;2023-01-30T12:44:35;96543.94;;;3.90;100.00
2397;BME280;1209;48.410;9.054;2023-01-30T12:52:58;96536.59;;;3.74;100.00
2397;BME280;1209;48.410;9.054;2023-01-30T12:55:38;96532.88;;;3.67;100.00
2397;BME280;1209;48.410;9.054;2023-01-30T12:58:16;96532.44;;;3.62;100.00
2397;BME280;1209;48.410;9.054;2023-01-30T13:12:35;96551.16;;;3.55;100.00
2397;BME280;1209;48.410;9.054;2023-01-30T13:21:30;96560.22;;;3.49;100.00
2397;BME280;1209;48.410;9.054;2023-01-30T13:26:38;96560.16;;;3.28;100.00
2397;BME280;1209;48.410;9.054;2023-01-30T13:29:41;96571.28;;;3.29;100.00
2397;BME280;1209;48.410;9.054;2023-01-30T13:32:26;96572.97;;;3.19;100.00
2397;BME280;1209;48.410;9.054;2023-01-30T13:34:55;96586.22;;;3.14;100.00
2397;BME280;1209;48.410;9.054;2023-01-30T13:37:22;96580.50;;;3.10;100.00
2397;BME280;1209;48.410;9.054;2023-01-30T13:39:51;96589.75;;;3.13;100.00
2397;BME280;1209;48.410;9.054;2023-01-30T13:42:37;96584.59;;;3.13;100.00
2397;BME280;1209;48.410;9.054;2023-01-30T13:45:14;96587.97;;;3.13;100.00
2397;BME280;1209;48.410;9.054;2023-01-30T13:53:50;96606.53;;;3.07;100.00
2397;BME280;1209;48.410;9.054;2023-01-30T13:56:23;96609.56;;;3.12;100.00
2397;BME280;1209;48.410;9.054;2023-01-30T14:07:38;96623.38;;;3.23;100.00
2397;BME280;1209;48.410;9.054;2023-01-30T14:10:18;96617.84;;;3.27;100.00
2397;BME280;1209;48.410;9.054;2023-01-30T14:17:38;96633.59;;;3.24;100.00
2397;BME280;1209;48.410;9.054;2023-01-30T14:20:20;96629.00;;;3.28;100.00
2397;BME280;1209;48.410;9.054;2023-01-30T14:35:45;96646.72;;;3.32;100.00
2397;BME280;1209;48.410;9.054;2023-01-30T14:38:18;96654.56;;;3.42;100.00
2397;BME280;1209;48.410;9.054;2023-01-30T14:45:52;96656.22;;;3.43;100.00
2397;BME280;1209;48.410;9.054;2023-01-30T14:56:37;96688.94;;;3.20;100.00
2397;BME280;1209;48.410;9.054;2023-01-30T14:59:29;96697.72;;;3.29;100.00
2397;BME280;1209;48.410;9.054;2023-01-30T15:01:59;96709.81;;;3.28;100.00
2397;BME280;1209;48.410;9.054;2023-01-30T15:04:30;96719.44;;;3.26;100.00
2397;BME280;1209;48.410;9.054;2023-01-30T15:06:58;96731.28;;;3.17;100.00
2397;BME280;1209;48.410;9.054;2023-01-30T15:09:26;96732.69;;;3.22;100.00
2397;BME280;1209;48.410;9.054;2023-01-30T15:12:19;96739.75;;;3.20;100.00
2397;BME280;1209;48.410;9.054;2023-01-30T15:15:05;96749.13;;;3.09;100.00
2397;BME280;1209;48.410;9.054;2023-01-30T15:31:20;96782.19;;;2.93;100.00
2397;BME280;1209;48.410;9.054;2023-01-30T15:33:48;96791.06;;;2.89;100.00
2397;BME280;1209;48.410;9.054;2023-01-30T15:36:34;96791.06;;;2.89;100.00
2397;BME280;1209;48.410;9.054;2023-01-30T15:39:05;96789.16;;;2.80;100.00
2397;BME280;1209;48.410;9.054;2023-01-30T15:41:36;96792.06;;;2.75;100.00
2397;BME280;1209;48.410;9.054;2023-01-30T15:47:19;96796.06;;;2.79;100.00
2397;BME280;1209;48.410;9.054;2023-01-30T15:50:06;96793.00;;;2.74;100.00
2397;BME280;1209;48.410;9.054;2023-01-30T15:52:38;96798.16;;;2.74;100.00
2397;BME280;1209;48.410;9.054;2023-01-30T15:55:16;96790.53;;;2.73;100.00
2397;BME280;1209;48.410;9.054;2023-01-30T15:57:48;96787.16;;;2.72;100.00
2397;BME280;1209;48.410;9.054;2023-01-30T16:00:26;96793.47;;;2.68;100.00
2397;BME280;1209;48.410;9.054;2023-01-30T16:02:52;96800.00;;;2.61;100.00
2397;BME280;1209;48.410;9.054;2023-01-30T16:05:25;96801.88;;;2.59;100.00
2397;BME280;1209;48.410;9.054;2023-01-30T16:07:53;96804.09;;;2.52;100.00
2397;BME280;1209;48.410;9.054;2023-01-30T16:10:28;96807.47;;;2.53;100.00